Station info - map view · info · telemetry · weather · raw · status · beacons · messages · bulletins · browse · moving · my account
Callsign, ship name or locator: Clear       
It is possible to search using wildcards (*?) after a prefix. Example: OH*
APRS station KD0GRH - show graphs
Map loading...
Comment: !SN!
Mic-E message: In service
Last status: MicroTrak FA v1.42
Location: 38°04.76' N 97°55.29' W - locator EM18AB99JA - show map - static map
1.3 miles North bearing 19° from Hutchinson, Reno County, Kansas, United States [?]
3.7 miles North bearing 16° from South Hutchinson, Reno County, Kansas, United States
41.6 miles Northwest bearing 310° from Wichita, Sedgwick County, Kansas, United States
55.2 miles South bearing 198° from Salina, Saline County, Kansas, United States
Last position: 2019-11-14 17:15:26 EST (12h47m ago)
2019-11-14 16:15:26 CST local time at Hutchinson, United States [?]
Altitude: 1539 ft
Course: 89°
Speed: 24 MPH
Last telemetry: 2019-11-14 17:15:26 EST (12h47m ago) – show telemetry
Ch 1: 489, Ch 2: 591, Ch 3: 0, Ch 4: 0, Ch 5: 0
 1     2     3     4     5     6     7     8 
Device: Byonics: TinyTrak3 (tracker)
Last path: KD0GRH>S8PT7U via WIDE1-1,WIDE2-1,qAR,AC0RL (good)
Positions stored: 35893
Packet rate: 120 seconds between packets on average during 959 seconds.
Stations near current position of KD0GRH - show more
callsign distance last heard - EST      callsign distance last heard - EST
KDOGRH0.4 miles 326°2019-11-15 06:02:32 W0ZC-11.0 miles 90°2019-11-01 20:13:29
W0RHP1.1 miles 200°2019-11-12 22:36:56 N0NHB-11.2 miles 123°2019-11-14 18:02:11
FW06951.2 miles 274°2019-11-15 06:01:53 N0NKA-52.2 miles 238°2019-10-18 21:52:33
AC0RL2.4 miles 250°2019-11-15 05:44:47 AC0RL-WX2.4 miles 250°2019-11-15 05:57:17
KD0LWX3.1 miles 161°2019-10-20 09:22:32 DW588314.5 miles 105°2019-11-15 06:00:19
CW442116.1 miles 273°2019-11-15 06:01:42 WA0D-116.5 miles 105°2019-11-09 16:52:25
DW616024.1 miles 94°2019-11-15 06:00:25 N5NIQ-R24.2 miles 34°2019-11-15 06:02:55
DW841425.2 miles 99°2019-11-15 06:00:04 k0zim25.7 miles 39°2019-10-18 09:41:39
KJ4VCX-726.5 miles 75°2019-11-13 12:55:47 KC0UUF-127.7 miles 80°2019-11-10 14:35:31
W0REM-1427.9 miles 105°2019-11-14 23:26:59 K0ZIM-929.3 miles 85°2019-11-14 15:12:07
Stations which heard KD0GRH directly on radio –
callsign pkts first heard - EST last heard longest (tx => rx) longest at - EST
N0KTA 2 2019-11-03 06:50:25 2019-11-03 07:24:23 EM18DI > EM17JN 59.2 miles 154° 2019-11-03 06:50:25
W0KCK 3 2019-11-03 09:36:28 2019-11-03 17:31:02 EM28SX > EM29QC 11.0 miles 315° 2019-11-03 17:31:02
K0MOO-15 4 2019-11-03 08:44:31 2019-11-03 18:48:55 EM28HM > EM28ML 22.3 miles 96° 2019-11-03 08:44:31
N0PTL 23 2019-11-03 09:12:29 2019-11-03 18:20:54 EM28NT > EM28PX 12.2 miles 40° 2019-11-03 09:12:29
KC0U-1 4 2019-11-03 07:36:20 2019-11-03 19:54:24 EM18PI > EM18WC 38.5 miles 116° 2019-11-03 07:36:20
STLPLZ 12 2019-11-03 09:52:29 2019-11-03 17:49:02 EM28SX > EM29QB 7.8 miles 321° 2019-11-03 17:37:03
AC0RL 289 2019-11-01 09:24:34 2019-11-14 17:15:26 EM18DG > EM18AB 19.0 miles 219° 2019-11-03 20:58:23
SMMC 2 2019-11-03 09:20:29 2019-11-03 17:43:02 EM28RW > EM28PX 8.1 miles 291° 2019-11-03 17:43:02
CMHS 2 2019-11-03 09:34:29 2019-11-03 09:40:29 EM29SA > EM28QW 11.6 miles 234° 2019-11-03 09:40:29
MATFLD 19 2019-11-03 07:08:23 2019-11-03 20:14:24 EM18HI > EM18SD 51.4 miles 107° 2019-11-03 07:08:23
BASHOR 1 2019-11-03 18:18:54 2019-11-03 18:18:54 EM28OV > EM29MC 15.7 miles 326° 2019-11-03 18:18:54
LSBRG 13 2019-11-03 08:46:30 2019-11-03 18:54:54 EM28HM > EM28QN 42.8 miles 85° 2019-11-03 18:54:54
WX0U-2 15 2019-11-03 07:56:20 2019-11-03 19:44:24 EM18UJ > EM18VJ 5.5 miles 90° 2019-11-03 07:56:20
OMC 3 2019-11-03 09:02:30 2019-11-03 18:30:54 EM28LR > EM28OU 15.4 miles 52° 2019-11-03 09:02:30
EMPRIA 13 2019-11-03 07:38:21 2019-11-03 20:08:24 EM18OI > EM18VJ 33.3 miles 87° 2019-11-03 20:08:24
MILLER 7 2019-11-03 08:16:31 2019-11-03 19:14:54 EM28DK > EM28AP 20.3 miles 320° 2019-11-03 08:28:31
KD0YUJ 2 2019-11-03 09:50:28 2019-11-03 17:27:02 EM29SA > EM29UL 31.4 miles 17° 2019-11-03 17:27:02
MENORA 1 2019-11-03 16:53:05 2019-11-03 16:53:05 EM29SB > EM28QV 13.2 miles 225° 2019-11-03 16:53:05
KU0MED 3 2019-11-03 17:11:03 2019-11-03 18:04:56 EM28QW > EM29QB 8.4 miles 359° 2019-11-03 18:04:56
TRUHH 3 2019-11-03 09:46:29 2019-11-03 17:21:03 EM29SB > EM29RC 5.8 miles 300° 2019-11-03 17:21:03
KCVA 8 2019-11-03 09:38:29 2019-11-03 18:08:55 EM28QW > EM29RB 9.8 miles 26° 2019-11-03 18:08:55

Only position packets which were originated by the station are shown here. The range statistics show some extra long hops, because some digipeaters do not correctly add themselves to the digipeater path. Please check the raw packets.
About this site
This page shows real-time information collected from the Automatic Position Reporting System Internet network (APRS-IS). APRS is used by amateur (ham) radio operators to transmit real-time position information, weather data, telemetry and messages over the radio. A vehicle equipped with a GPS receiver, a VHF transmitter or HF transceiver and a small computer device called a tracker transmits it's location, speed and course in a small data packet, which is then received by a nearby iGate receiving site which forwards the packet on the Internet. Systems connected to the Internet can send information on the APRS-IS without a radio transmitter, or collect and display information transmitted anywhere in the world.
User guide · FAQ · Blog · Discussion group · Linking to aprs.fi · AIS sites · Service status · Database statistics · Advertising on aprs.fi · Technical details · API · Change log · Planned changes · Credits and thanks · Terms Of Service · iPhone/iPad APRS